createdAt,value
2023-02-19T00:02:24.936Z,79.84
2023-02-19T00:08:26.644Z,75.57
2023-02-19T00:14:28.502Z,83.40
2023-02-19T00:20:30.968Z,84.80
2023-02-19T00:26:33.433Z,86.25
2023-02-19T00:32:35.246Z,81.67
2023-02-19T00:38:38.336Z,78.82
2023-02-19T00:44:40.793Z,77.72
2023-02-19T00:50:43.234Z,76.83
2023-02-19T00:56:45.720Z,77.17
2023-02-19T01:02:48.496Z,76.94
2023-02-19T01:08:51.660Z,77.27
2023-02-19T01:14:54.089Z,76.73
2023-02-19T01:20:56.532Z,78.11
2023-02-19T01:26:58.986Z,79.10
2023-02-19T01:33:01.449Z,81.27
2023-02-19T01:39:08.913Z,82.43
2023-02-19T01:45:19.424Z,83.36
2023-02-19T01:51:22.875Z,81.41
2023-02-19T01:57:29.355Z,81.62
2023-02-19T02:03:32.822Z,80.87
2023-02-19T02:09:53.347Z,79.69
2023-02-19T02:16:25.015Z,79.22
2023-02-19T02:22:37.449Z,78.77
2023-02-19T02:29:07.027Z,79.89
2023-02-19T02:35:13.516Z,78.77
2023-02-19T02:41:17.928Z,77.69
2023-02-19T02:47:39.545Z,77.18
2023-02-19T02:54:16.139Z,83.62
2023-02-19T03:00:19.624Z,82.10
2023-02-19T03:06:25.125Z,80.75
2023-02-19T03:12:50.677Z,80.92
2023-02-19T03:19:14.353Z,80.12
2023-02-19T03:25:39.523Z,80.32
2023-02-19T03:31:44.416Z,80.45
2023-02-19T03:37:55.719Z,80.01
2023-02-19T03:44:01.197Z,79.51
2023-02-19T03:50:18.704Z,79.51
2023-02-19T03:56:40.213Z,79.00
2023-02-19T04:03:01.111Z,78.88
2023-02-19T04:09:09.320Z,78.87
2023-02-19T04:15:19.827Z,79.07
2023-02-19T04:21:24.288Z,79.28
2023-02-19T04:27:45.233Z,80.12
2023-02-19T04:33:52.750Z,79.77
2023-02-19T04:39:55.752Z,79.72
2023-02-19T04:46:02.262Z,80.04
2023-02-19T04:52:04.678Z,80.68
2023-02-19T04:58:07.110Z,80.08
2023-02-19T05:04:10.558Z,79.83
2023-02-19T05:10:13.102Z,80.10
2023-02-19T05:16:16.494Z,79.53
2023-02-19T05:22:18.478Z,77.60
2023-02-19T05:28:21.435Z,76.88
2023-02-19T05:34:23.856Z,75.11
2023-02-19T05:40:26.317Z,74.95
2023-02-19T05:46:30.821Z,75.54
2023-02-19T05:52:33.224Z,76.00
2023-02-19T05:58:35.741Z,76.54
2023-02-19T06:04:38.157Z,75.41
2023-02-19T06:10:41.606Z,74.70
2023-02-19T06:16:44.081Z,74.58
2023-02-19T06:22:45.924Z,74.97
2023-02-19T06:28:49.972Z,75.34
2023-02-19T06:34:52.489Z,74.62
2023-02-19T06:40:54.928Z,74.77
2023-02-19T06:46:57.458Z,74.30
2023-02-19T06:52:59.870Z,74.48
2023-02-19T06:59:06.316Z,76.55
2023-02-19T07:05:08.794Z,74.84
2023-02-19T07:11:11.546Z,76.06
2023-02-19T07:17:13.682Z,76.90
2023-02-19T07:23:16.120Z,76.77
2023-02-19T07:29:18.973Z,75.52
2023-02-19T07:35:20.772Z,75.10
2023-02-19T07:41:23.565Z,75.06
2023-02-19T07:47:26.039Z,74.34
2023-02-19T07:53:29.516Z,74.29
2023-02-19T07:59:31.962Z,73.84
2023-02-19T08:05:38.413Z,74.67
2023-02-19T08:11:58.971Z,73.43
2023-02-19T08:18:01.434Z,73.20
2023-02-19T08:24:03.904Z,74.04
2023-02-19T08:30:06.368Z,74.01
2023-02-19T08:36:09.848Z,73.98
2023-02-19T08:42:12.263Z,71.75
2023-02-19T08:48:15.748Z,73.65
2023-02-19T08:54:17.540Z,73.29
2023-02-19T09:00:19.515Z,71.94
2023-02-19T09:06:22.106Z,72.99
2023-02-19T09:12:24.563Z,72.38
2023-02-19T09:18:27.035Z,70.84
2023-02-19T09:24:29.488Z,70.62
2023-02-19T09:30:32.014Z,71.43
2023-02-19T09:36:34.463Z,70.19
2023-02-19T09:42:36.688Z,70.38
2023-02-19T09:48:39.346Z,70.47
2023-02-19T09:54:44.774Z,68.24
2023-02-19T10:00:50.242Z,69.56
2023-02-19T10:06:53.703Z,69.47
2023-02-19T10:13:07.176Z,69.57
2023-02-19T10:19:15.691Z,70.38
2023-02-19T10:25:25.198Z,69.14
2023-02-19T10:31:27.772Z,67.79
2023-02-19T10:37:32.133Z,68.00
2023-02-19T10:43:42.648Z,68.45
2023-02-19T10:49:47.137Z,68.59
2023-02-19T10:55:49.580Z,68.38
2023-02-19T11:01:59.118Z,68.48
2023-02-19T11:08:01.558Z,68.75
2023-02-19T11:14:19.082Z,68.68
2023-02-19T11:20:21.557Z,69.49
2023-02-19T11:26:28.096Z,69.11
2023-02-19T11:32:31.574Z,69.79
2023-02-19T11:38:34.066Z,71.63
2023-02-19T11:45:23.681Z,73.02
2023-02-19T11:51:41.212Z,74.27
2023-02-19T11:57:48.713Z,73.43
2023-02-19T12:04:18.264Z,76.08
2023-02-19T12:10:34.752Z,74.77
2023-02-19T12:16:52.015Z,74.58
2023-02-19T12:23:05.794Z,74.61
2023-02-19T12:29:17.305Z,75.55
2023-02-19T12:35:39.932Z,75.87
2023-02-19T12:41:52.362Z,75.99
2023-02-19T12:48:21.922Z,76.57
2023-02-19T12:54:38.434Z,75.26
2023-02-19T13:00:50.508Z,75.43
2023-02-19T13:06:56.435Z,75.52
2023-02-19T13:13:04.947Z,77.39
2023-02-19T13:19:06.729Z,75.69
2023-02-19T13:25:10.240Z,75.85
2023-02-19T13:31:59.745Z,76.20
2023-02-19T13:38:04.003Z,74.98
2023-02-19T13:44:11.510Z,75.99
2023-02-19T13:50:26.005Z,74.92
2023-02-19T13:56:34.781Z,74.98
2023-02-19T14:02:36.639Z,75.42
2023-02-19T14:08:51.391Z,75.29
2023-02-19T14:14:56.949Z,75.39
2023-02-19T14:21:18.514Z,75.50
2023-02-19T14:27:21.653Z,75.48
2023-02-19T14:33:37.469Z,76.14
2023-02-19T14:39:43.275Z,77.47
2023-02-19T14:45:55.414Z,75.87
2023-02-19T14:52:01.893Z,78.67
2023-02-19T14:58:14.431Z,75.16
2023-02-19T15:04:35.979Z,76.26
2023-02-19T15:10:41.376Z,76.34
2023-02-19T15:16:43.872Z,77.62
2023-02-19T15:22:48.783Z,82.24
2023-02-19T15:29:01.280Z,82.80
2023-02-19T15:35:05.362Z,79.75
2023-02-19T15:41:08.975Z,80.66
2023-02-19T15:47:22.316Z,81.97
2023-02-19T15:53:30.787Z,82.21
2023-02-19T15:59:47.293Z,82.14
2023-02-19T16:06:15.882Z,83.02
2023-02-19T16:12:24.364Z,82.77
2023-02-19T16:18:26.855Z,82.79
2023-02-19T16:24:37.313Z,81.38
2023-02-19T16:30:39.868Z,82.15
2023-02-19T16:36:44.242Z,81.61
2023-02-19T16:42:49.733Z,78.39
2023-02-19T16:48:52.182Z,78.92
2023-02-19T16:54:54.646Z,78.58
2023-02-19T17:00:57.200Z,80.84
2023-02-19T17:07:00.575Z,80.85
2023-02-19T17:13:03.038Z,79.94
2023-02-19T17:19:16.541Z,79.30
2023-02-19T17:25:19.043Z,80.20
2023-02-19T17:31:21.597Z,80.70
2023-02-19T17:37:23.965Z,81.62
2023-02-19T17:43:26.458Z,82.52
2023-02-19T17:49:28.895Z,82.86
2023-02-19T17:55:31.346Z,86.04
2023-02-19T18:01:33.838Z,84.71
2023-02-19T18:07:36.274Z,84.58
2023-02-19T18:13:40.615Z,83.73
2023-02-19T18:19:47.467Z,83.40
2023-02-19T18:25:49.640Z,82.88
2023-02-19T18:31:54.551Z,81.66
2023-02-19T18:37:59.448Z,80.84
2023-02-19T18:44:02.037Z,81.07
2023-02-19T18:50:04.500Z,81.37
2023-02-19T18:56:09.961Z,82.40
2023-02-19T19:02:13.418Z,82.53
2023-02-19T19:08:15.910Z,84.35
2023-02-19T19:14:18.365Z,83.37
2023-02-19T19:20:22.397Z,83.04
2023-02-19T19:26:24.562Z,83.64
2023-02-19T19:32:26.634Z,83.97
2023-02-19T19:38:28.424Z,84.12
2023-02-19T19:44:30.732Z,83.40
2023-02-19T19:50:33.165Z,82.46
2023-02-19T19:56:43.814Z,83.12
2023-02-19T20:02:48.203Z,82.46
2023-02-19T20:08:50.647Z,82.21
2023-02-19T20:14:53.122Z,81.24
2023-02-19T20:20:55.564Z,80.28
2023-02-19T20:26:59.335Z,79.78
2023-02-19T20:33:01.093Z,79.24
2023-02-19T20:39:03.411Z,77.99
2023-02-19T20:45:06.104Z,77.70
2023-02-19T20:51:07.886Z,77.44
2023-02-19T20:57:13.426Z,77.05
2023-02-19T21:03:17.843Z,76.42
2023-02-19T21:09:22.273Z,75.90
2023-02-19T21:15:31.534Z,75.74
2023-02-19T21:21:41.318Z,76.12
2023-02-19T21:27:45.743Z,76.03
2023-02-19T21:33:59.183Z,75.10
2023-02-19T21:40:19.757Z,74.43
2023-02-19T21:46:28.722Z,75.34
2023-02-19T21:52:31.695Z,75.17
2023-02-19T21:58:34.175Z,75.33
2023-02-19T22:04:36.636Z,75.19
2023-02-19T22:10:42.078Z,75.43
2023-02-19T22:16:44.600Z,76.05
2023-02-19T22:22:47.039Z,76.32
2023-02-19T22:28:50.466Z,75.38
2023-02-19T22:34:53.925Z,75.43
2023-02-19T22:40:56.421Z,75.29
2023-02-19T22:46:58.916Z,74.30
2023-02-19T22:53:01.292Z,75.05
2023-02-19T22:59:03.752Z,74.59
2023-02-19T23:05:06.216Z,74.50
2023-02-19T23:11:11.700Z,73.50
2023-02-19T23:17:22.719Z,73.51
2023-02-19T23:23:25.640Z,73.57
2023-02-19T23:29:29.651Z,74.62
2023-02-19T23:35:32.556Z,74.15
2023-02-19T23:41:34.985Z,73.52
2023-02-19T23:47:37.443Z,73.57
2023-02-19T23:53:39.980Z,73.56
2023-02-19T23:59:42.388Z,73.27
